Martha's Vineyard, MA

8:06 AM EDT on April 24, 2017 (GMT -0400)
Martha's Vineyard | | Change Station

Elev 66 ft 41.39 °N, 70.61 °W | Updated 13 minutes ago

Scattered Clouds
Scattered Clouds
48 °F
Feels Like 48 °F
N
6
Wind Variable Wind from Variable

Today
High -- | Low -- °F
--% Chance of Precip.
Yesterday
High -- | Low -- °F
Precip. -- in
Pressure 30.19 in
Visibility 10.0 miles
Clouds Scattered Clouds 700 ft
Dew Point 46 °F
Humidity 93%
Rainfall 0.00 in
Snow Depth Not available.
5:48 AM 7:32 PM
Waning Crescent, 6% visible
METAR KMVY 241153Z VRB05KT 10SM SCT007 09/08 A3019 RMK AO2 SLP223 T00890078 10089 20044 53015
Pressure 30.19 in
Visibility 10.0 miles
Clouds Scattered Clouds 700 ft
Dew Point 46 °F
Humidity 93%
Rainfall 0.00 in
Snow Depth Not available.
5:48 AM 7:32 PM
Waning Crescent, 6% visible
METAR KMVY 241153Z VRB05KT 10SM SCT007 09/08 A3019 RMK AO2 SLP223 T00890078 10089 20044 53015

Get Severe Weather Alerts

Thanks for signing up!

Be on the lookout for a verification email in your inbox.

You'll start receiving the daily forecast at 8 AM.

×

10-Day Weather Forecast

Almanac

Astronomy

Apr. 24, 2017 Rise Set
Actual Time
Civil Twilight
Nautical Twilight
Astronomical Twilight
Moon
Length of Visible Light
Length of Day
Tomorrow will be .
, % of the Moon is Illuminated

Today's Extremes

State Highs State Lows

Community

WunderPhotos

WunderBlog® & News

Nearby

Air Quality

  Air Quality AQ Index Pollutant
Not available.

Snow Depth

Station Depth Elevation

Earthquake Activity

City Distance Mag. Time & Date
Minimum magnitude displayed is 2.5.

Coastal Water Temperatures

Place Temperature

Stations

Nearby Weather Stations

Station Location Temp. Windchill Dew Point Humidity Wind Precip. Elev Updated Type
                   

Watches & Warnings

There are currently no watches in effect.